Nearby METAR Reports

 

KHFD - Hartford/Brainar, Connecticut, USA
Distance from station: ESE 5mi, 8km
Updated: Sun, 05-Feb-2023 8:53am EST
Mostly cloudy
Mostly cloudy
 Wind from SSW
Wind: SSW 13 mph , 20 km/h
Temperature: 34°F , 1°C
Wind Chill: 25°F , -4°C
Dew Point: 18°F , -8°C
Humidity: 51%
Barometer: 30.23 inHg , 1023.7 hPa
Clouds: Mostly cloudy
Visibility: 10 miles , 16 km
Cloud details: Mostly cloudy 20000 ft
2023/02/05 13:53 KHFD 051353Z 21011KT 10SM BKN200 01/M08 A3023 RMK AO2 SLP236 T00111083
KBDL - Windsor Locks, Connecticut, USA
Distance from station: NNE 12mi, 20km
Updated: Sun, 05-Feb-2023 8:51am EST
Mostly cloudy
Mostly cloudy
 Wind from SSW
Wind: SSW 15 mph , 24 km/h, Gust: 21 mph , 33 km/h
Temperature: 30°F , -1°C
Wind Chill: 19°F , -7°C
Dew Point: 16°F , -9°C
Humidity: 55%
Barometer: 30.21 inHg , 1023 hPa
Clouds: Mostly cloudy
Visibility: 10 miles , 16 km
Cloud details: Mostly cloudy 24000 ft
2023/02/05 13:51 KBDL 051351Z 21013G18KT 10SM BKN240 M01/M09 A3021 RMK AO2 SLP231 T10061094
 
KMMK - Meriden, Connecticut, USA
Distance from station: SSW 18mi, 28km
Updated: Sun, 05-Feb-2023 8:53am EST
Clear
Clear
 Wind from SSW
Wind: SSW 6 mph , 9 km/h, Gust: 18 mph , 30 km/h
Temperature: 34°F , 1°C
Wind Chill: 29°F , -2°C
Dew Point: 18°F , -8°C
Humidity: 51%
Barometer: 30.23 inHg , 1023.7 hPa
Clouds: Clear
Visibility: 10 miles , 16 km
2023/02/05 13:53 KMMK 051353Z AUTO 20005G16KT 10SM CLR 01/M08 A3023 RMK AO2 SLP239 T00111083
KBAF - Westfield, Massachusetts, USA
Distance from station: N 28mi, 45km
Updated: Sun, 05-Feb-2023 8:53am EST
Clear
Clear
 Wind from SSW
Wind: SSW 13 mph , 20 km/h
Temperature: 28°F , -2°C
Wind Chill: 17°F , -8°C
Dew Point: 14°F , -10°C
Humidity: 55%
Barometer: 30.19 inHg , 1022.4 hPa
Clouds: Clear
Visibility: 10 miles , 16 km
2023/02/05 13:53 KBAF 051353Z 20011KT 10SM CLR M02/M10 A3019 RMK AO2 SLP232 T10221100
 
KIJD - Willimantic, Connecticut, USA
Distance from station: E 29mi, 46km
Updated: Sun, 05-Feb-2023 8:52am EST
Clear
Clear
 Wind from calm
Wind: Calm
Temperature: 27°F , -3°C
Dew Point: 14°F , -10°C
Humidity: 59%
Barometer: 30.22 inHg , 1023.4 hPa
Clouds: Clear
Visibility: 10 miles , 16 km
2023/02/05 13:52 KIJD 051352Z AUTO 00000KT 10SM CLR M03/M10 A3022 RMK AO2 PRESFR SLP238 T10331100
KOXC - Oxford/Waterbury, Connecticut, USA
Distance from station: SW 29mi, 46km
Updated: Sun, 05-Feb-2023 8:51am EST
Clear
Clear
 Wind from SSW
Wind: SSW 8 mph , 13 km/h
Temperature: 28°F , -2°C
Wind Chill: 20°F , -7°C
Dew Point: 19°F , -7°C
Humidity: 69%
Barometer: 30.20 inHg , 1022.7 hPa
Clouds: Clear
Visibility: 10 miles , 16 km
2023/02/05 13:51 KOXC 051351Z 21007KT 10SM CLR M02/M07 A3020 RMK AO2 SLP252 T10171072
 
KSNC - Chester, Connecticut, USA
Distance from station: SSE 29mi, 47km
Updated: Sun, 05-Feb-2023 9:15am EST
Clear
Clear
 Wind from SW
Wind: SW 14 mph , 22 km/h, Gust: 24 mph , 39 km/h
Temperature: 36°F , 2°C
Wind Chill: 27°F , -3°C
Dew Point: 18°F , -8°C
Humidity: 48%
Barometer: 30.22 inHg , 1023.4 hPa
Clouds: Clear
Visibility: 10 miles , 16 km
2023/02/05 14:15 KSNC 051415Z AUTO 22012G21KT 10SM CLR 02/M08 A3022 RMK AO2
KCEF - Chicopee/Westove, Massachusetts, USA
Distance from station: NNE 32mi, 52km
Updated: Sun, 05-Feb-2023 8:55am EST
Partly cloudy
Partly cloudy
 Wind from SW
Wind: SW 13 mph , 20 km/h
Temperature: 30°F , -1°C
Wind Chill: 20°F , -7°C
Dew Point: 14°F , -10°C
Humidity: 51%
Barometer: 30.17 inHg , 1021.7 hPa
Clouds: Partly cloudy
Visibility: 10 miles , 16 km
Cloud details: Partly cloudy 19000 ft
2023/02/05 13:55 KCEF 051355Z AUTO 22011KT 10SM SCT190 M01/M10 A3017 RMK AO2 SLP227 T10141100
 
KHVN - New Haven/Tweed, Connecticut, USA
Distance from station: S 35mi, 56km
Updated: Sun, 05-Feb-2023 8:53am EST
Clear
Clear
 Wind from SW
Wind: SW 14 mph , 22 km/h, Gust: 24 mph , 39 km/h
Temperature: 37°F , 3°C
Wind Chill: 28°F , -2°C
Dew Point: 21°F , -6°C
Humidity: 52%
Barometer: 30.25 inHg , 1024.4 hPa
Clouds: Clear
Visibility: 10 miles , 16 km
2023/02/05 13:53 KHVN 051353Z 22012G21KT 170V250 10SM CLR 03/M06 A3025 RMK AO2 SLP242 T00331056
KBDR - Bridgeport, Connecticut, USA
Distance from station: SSW 46mi, 74km
Updated: Sun, 05-Feb-2023 8:52am EST
Clear
Clear
 Wind from SW
Wind: SW 15 mph , 24 km/h
Temperature: 36°F , 2°C
Wind Chill: 27°F , -3°C
Dew Point: 19°F , -7°C
Humidity: 52%
Barometer: 30.26 inHg , 1024.7 hPa
Clouds: Clear
Visibility: 10 miles , 16 km
2023/02/05 13:52 KBDR 051352Z 23013KT 10SM CLR 02/M07 A3026 RMK AO2 SLP245 T00221067
 
KGON - Groton/New Londo, Connecticut, USA
Distance from station: SE 46mi, 75km
Updated: Sun, 05-Feb-2023 8:56am EST
Clear
Clear
 Wind from WSW
Wind: WSW 14 mph , 22 km/h
Temperature: 41°F , 5°C
Wind Chill: 33°F , 1°C
Dew Point: 25°F , -4°C
Humidity: 53%
Barometer: 30.25 inHg , 1024.4 hPa
Clouds: Clear
Visibility: 10 miles , 16 km
2023/02/05 13:56 KGON 051356Z 24012KT 10SM CLR 05/M04 A3025 RMK AO2 SLP244 T00501039 $
KDXR - Danbury, Connecticut, USA
Distance from station: SW 47mi, 76km
Updated: Sun, 05-Feb-2023 8:53am EST
Clear
Clear
 Wind from SSW
Wind: SSW 10 mph , 17 km/h
Temperature: 34°F , 1°C
Wind Chill: 26°F , -3°C
Dew Point: 16°F , -9°C
Humidity: 48%
Barometer: 30.22 inHg , 1023.4 hPa
Clouds: Clear
Visibility: 10 miles , 16 km
2023/02/05 13:53 KDXR 051353Z 21009KT 190V250 10SM CLR 01/M09 A3022 RMK AO2 SLP239 T00111094 $
 
KPSF - Pittsfield, Massachusetts, USA
Distance from station: NNW 54mi, 87km
Updated: Sun, 05-Feb-2023 8:54am EST
Clear
Clear
 Wind from S
Wind: S 5 mph , 7 km/h
Temperature: 25°F , -4°C
Wind Chill: 19°F , -7°C
Dew Point: 10°F , -12°C
Humidity: 54%
Barometer: 30.09 inHg , 1019 hPa
Clouds: Clear
Visibility: 10 miles , 16 km
2023/02/05 13:54 KPSF 051354Z AUTO 18004KT 10SM CLR M04/M12 A3009 RMK AO2 SLP214 T10441117
KWST - Westerly, Rhode Island, USA
Distance from station: ESE 56mi, 91km
Updated: Sun, 05-Feb-2023 8:53am EST
Clear
Clear
 Wind from WSW
Wind: WSW 14 mph , 22 km/h, Gust: 22 mph , 35 km/h
Temperature: 39°F , 4°C
Wind Chill: 31°F , -1°C
Dew Point: 27°F , -3°C
Humidity: 61%
Barometer: 30.26 inHg , 1024.7 hPa
Clouds: Clear
Visibility: 10 miles , 16 km
2023/02/05 13:53 KWST 051353Z AUTO 24012G19KT 10SM CLR 04/M03 A3026 RMK AO2 SLP246 T00391033
 
KORH - Worcester, Massachusetts, USA
Distance from station: NE 57mi, 92km
Updated: Sun, 05-Feb-2023 8:54am EST
Clear
Clear
 Wind from WSW
Wind: WSW 20 mph , 31 km/h, Gust: 31 mph , 50 km/h
Temperature: 30°F , -1°C
Wind Chill: 17°F , -8°C
Dew Point: 16°F , -9°C
Humidity: 55%
Barometer: 30.13 inHg , 1020.3 hPa
Clouds: Clear
Visibility: 10 miles , 16 km
2023/02/05 13:54 KORH 051354Z 24017G27KT 10SM CLR M01/M09 A3013 RMK AO2 PK WND 21027/1345 SLP221 T10061094
KPOU - Poughkeepsie, New York, USA
Distance from station: W 60mi, 96km
Updated: Sun, 05-Feb-2023 8:53am EST
Clear
Clear
 Wind from calm
Wind: Calm
Temperature: 27°F , -3°C
Dew Point: 16°F , -9°C
Humidity: 64%
Barometer: 30.21 inHg , 1023 hPa
Clouds: Clear
Visibility: 10 miles , 16 km
2023/02/05 13:53 KPOU 051353Z 00000KT 10SM CLR M03/M09 A3021 RMK AO2 SLP229 T10281094 $
 
KORE - Orange, Massachusetts, USA
Distance from station: NNE 60mi, 97km
Updated: Sun, 05-Feb-2023 8:52am EST
Clear
Clear
 Wind from S
Wind: S 12 mph , 19 km/h
Temperature: 25°F , -4°C
Wind Chill: 14°F , -10°C
Dew Point: 12°F , -11°C
Humidity: 59%
Barometer: 30.17 inHg , 1021.7 hPa
Clouds: Clear
Visibility: 10 miles , 16 km
2023/02/05 13:52 KORE 051352Z AUTO 19010KT 10SM CLR M04/M11 A3017 RMK AO2 SLP226 T10391106
KHTO - East Hampton, New York, USA
Distance from station: SSE 62mi, 99km
Updated: Sat, 21-May-2022 1:35pm EDT
NOT Current
Clear
Clear
 Wind from WNW
Wind: WNW 5 mph , 7 km/h
Temperature: 81°F , 27°C
Heat Index: 83°F , 28°C
Dew Point: 66°F , 19°C
Humidity: 62%
Barometer: 30.00 inHg , 1015.9 hPa
Clouds: Clear
Visibility: 10 miles , 16 km
2022/05/21 17:35 KHTO 211735Z AUTO 30004KT 10SM CLR 27/19 A3000 RMK AO2 T02670193
 
KFOK - Westhampton Beac, New York, USA
Distance from station: S 63mi, 102km
Updated: Sun, 05-Feb-2023 8:53am EST
Clear
Clear
 Wind from SW
Wind: SW 13 mph , 20 km/h, Gust: 23 mph , 37 km/h
Temperature: 41°F , 5°C
Wind Chill: 34°F , 1°C
Dew Point: 28°F , -2°C
Humidity: 61%
Barometer: 30.27 inHg , 1025.1 hPa
Clouds: Clear
Visibility: 10 miles , 16 km
2023/02/05 13:53 KFOK 051353Z 23011G20KT 10SM CLR 05/M02 A3027 RMK AO2 SLP249 T00501022
KMTP - Montauk, New York, USA
Distance from station: SE 64mi, 104km
Updated: Sun, 05-Feb-2023 8:54am EST

 Wind from WSW
Wind: WSW 12 mph , 19 km/h, Gust: 24 mph , 39 km/h
Temperature: 43°F , 6°C
Wind Chill: 37°F , 3°C
Dew Point: 30°F , -1°C
Humidity: 61%
Barometer: 30.27 inHg , 1025.1 hPa
2023/02/05 13:54 KMTP 051354Z AUTO 24010G21KT 06/M01 A3027 RMK AO1 SLP248 T00611011